UAL523 PHLI-PHKO
Flight info
| Callsign | UAL523 |
|---|---|
| Flight time | 0h 47m |
| Altitude | 31000 |
| Route | LIH V15 HNL V2 LNY VECKI9 |
| Aircraft | B742/H-SDFHIRWXY/L |
Departure
| Time | 2026-04-24 22:07 |
|---|---|
| Airport | Lihue Airport (PHLI) |
Arrival
| Time | 2026-04-24 22:54 |
|---|---|
| Airport | Ellison Onizuka Kona International Airport at Keāhole (PHKO) |
| Time | Latitude | Longitude | Altitude | Speed | Heading |
|---|---|---|---|---|---|
| 2026-04-24 21:57 | 21.97824 | -159.34767 | 187 ft | 0 kts | 315° |
| 2026-04-24 22:02 | 21.97823 | -159.34766 | 187 ft | 3 kts | 315° |
| 2026-04-24 22:02 | 21.97797 | -159.34705 | 183 ft | 4 kts | 248° |
| 2026-04-24 22:03 | 21.97805 | -159.34694 | 183 ft | 0 kts | 224° |
| 2026-04-24 22:03 | 21.97803 | -159.34697 | 183 ft | 1 kts | 224° |
| 2026-04-24 22:03 | 21.97795 | -159.34705 | 183 ft | 3 kts | 224° |
| 2026-04-24 22:03 | 21.97769 | -159.34732 | 185 ft | 9 kts | 226° |
| 2026-04-24 22:04 | 21.97722 | -159.34784 | 188 ft | 9 kts | 225° |
| 2026-04-24 22:04 | 21.97678 | -159.34831 | 191 ft | 8 kts | 225° |
| 2026-04-24 22:04 | 21.97633 | -159.34872 | 192 ft | 8 kts | 203° |
| 2026-04-24 22:04 | 21.97563 | -159.34839 | 189 ft | 15 kts | 135° |
| 2026-04-24 22:05 | 21.97489 | -159.34842 | 188 ft | 11 kts | 219° |
| 2026-04-24 22:05 | 21.97437 | -159.34892 | 189 ft | 9 kts | 222° |
| 2026-04-24 22:05 | 21.97387 | -159.34929 | 189 ft | 8 kts | 195° |
| 2026-04-24 22:05 | 21.97335 | -159.34914 | 187 ft | 9 kts | 129° |
| 2026-04-24 22:06 | 21.97329 | -159.34845 | 184 ft | 10 kts | 47° |
| 2026-04-24 22:06 | 21.97335 | -159.34837 | 184 ft | 5 kts | 46° |
| 2026-04-24 22:06 | 21.97504 | -159.34656 | 180 ft | 67 kts | 45° |
| 2026-04-24 22:06 | 21.98004 | -159.34117 | 152 ft | 131 kts | 45° |
| 2026-04-24 22:07 | 21.98761 | -159.33279 | 207 ft | 173 kts | 46° |
| 2026-04-24 22:07 | 21.99516 | -159.32314 | 834 ft | 173 kts | 62° |
| 2026-04-24 22:07 | 21.99731 | -159.31021 | 1249 ft | 189 kts | 103° |
| 2026-04-24 22:07 | 21.99003 | -159.29781 | 1348 ft | 209 kts | 141° |
| 2026-04-24 22:08 | 21.97605 | -159.29125 | 1602 ft | 220 kts | 160° |
| 2026-04-24 22:08 | 21.96228 | -159.28537 | 2179 ft | 211 kts | 150° |
| 2026-04-24 22:08 | 21.94909 | -159.27852 | 2557 ft | 214 kts | 150° |
| 2026-04-24 22:08 | 21.93551 | -159.27138 | 2974 ft | 216 kts | 150° |
| 2026-04-24 22:09 | 21.92307 | -159.26270 | 3332 ft | 213 kts | 125° |
| 2026-04-24 22:09 | 21.91685 | -159.24815 | 3586 ft | 217 kts | 103° |
| 2026-04-24 22:09 | 21.91109 | -159.23263 | 3843 ft | 230 kts | 115° |
| 2026-04-24 22:09 | 21.90304 | -159.21710 | 4097 ft | 244 kts | 117° |
| 2026-04-24 22:10 | 21.89397 | -159.20093 | 4358 ft | 258 kts | 118° |
| 2026-04-24 22:10 | 21.88433 | -159.18420 | 4664 ft | 269 kts | 119° |
| 2026-04-24 22:10 | 21.87432 | -159.16707 | 5196 ft | 269 kts | 119° |
| 2026-04-24 22:10 | 21.86447 | -159.15027 | 5655 ft | 272 kts | 119° |
| 2026-04-24 22:11 | 21.85419 | -159.13274 | 6100 ft | 275 kts | 120° |
| 2026-04-24 22:11 | 21.84401 | -159.11543 | 6556 ft | 278 kts | 119° |
| 2026-04-24 22:11 | 21.83349 | -159.09752 | 6998 ft | 282 kts | 119° |
| 2026-04-24 22:11 | 21.82304 | -159.07968 | 7508 ft | 285 kts | 119° |
| 2026-04-24 22:12 | 21.81243 | -159.06160 | 8038 ft | 287 kts | 119° |
| 2026-04-24 22:12 | 21.80161 | -159.04318 | 8524 ft | 291 kts | 119° |
| 2026-04-24 22:12 | 21.79073 | -159.02466 | 9003 ft | 294 kts | 119° |
| 2026-04-24 22:12 | 21.77971 | -159.00589 | 9448 ft | 299 kts | 119° |
| 2026-04-24 22:13 | 21.76866 | -158.98711 | 9930 ft | 302 kts | 120° |
| 2026-04-24 22:13 | 21.75741 | -158.96796 | 10422 ft | 304 kts | 120° |
| 2026-04-24 22:13 | 21.74609 | -158.94862 | 10878 ft | 308 kts | 119° |
| 2026-04-24 22:13 | 21.73497 | -158.92902 | 11364 ft | 310 kts | 118° |
| 2026-04-24 22:14 | 21.72378 | -158.90915 | 11839 ft | 314 kts | 118° |
| 2026-04-24 22:14 | 21.71244 | -158.88904 | 12312 ft | 316 kts | 118° |
| 2026-04-24 22:14 | 21.70090 | -158.86861 | 12777 ft | 319 kts | 119° |
| 2026-04-24 22:14 | 21.68929 | -158.84808 | 13240 ft | 323 kts | 118° |
| 2026-04-24 22:15 | 21.67747 | -158.82718 | 13743 ft | 326 kts | 118° |
| 2026-04-24 22:15 | 21.66583 | -158.80661 | 14269 ft | 327 kts | 118° |
| 2026-04-24 22:15 | 21.65397 | -158.78566 | 14756 ft | 329 kts | 119° |
| 2026-04-24 22:15 | 21.64201 | -158.76456 | 15245 ft | 330 kts | 119° |
| 2026-04-24 22:16 | 21.62993 | -158.74324 | 15737 ft | 332 kts | 119° |
| 2026-04-24 22:16 | 21.61790 | -158.72200 | 16189 ft | 334 kts | 119° |
| 2026-04-24 22:16 | 21.60588 | -158.70082 | 16646 ft | 335 kts | 119° |
| 2026-04-24 22:16 | 21.59367 | -158.67931 | 17067 ft | 338 kts | 119° |
| 2026-04-24 22:17 | 21.58138 | -158.65765 | 17524 ft | 339 kts | 119° |
| 2026-04-24 22:17 | 21.56917 | -158.63614 | 17956 ft | 340 kts | 119° |
| 2026-04-24 22:17 | 21.55681 | -158.61441 | 18368 ft | 342 kts | 119° |
| 2026-04-24 22:17 | 21.54435 | -158.59247 | 18774 ft | 344 kts | 119° |
| 2026-04-24 22:18 | 21.53184 | -158.57047 | 19185 ft | 345 kts | 119° |
| 2026-04-24 22:18 | 21.51932 | -158.54845 | 19583 ft | 347 kts | 119° |
| 2026-04-24 22:18 | 21.50672 | -158.52631 | 19977 ft | 348 kts | 119° |
| 2026-04-24 22:18 | 21.49409 | -158.50412 | 20351 ft | 350 kts | 119° |
| 2026-04-24 22:19 | 21.48131 | -158.48167 | 20729 ft | 352 kts | 119° |
| 2026-04-24 22:19 | 21.46857 | -158.45937 | 21117 ft | 354 kts | 119° |
| 2026-04-24 22:19 | 21.45557 | -158.43654 | 21549 ft | 356 kts | 119° |
| 2026-04-24 22:19 | 21.44276 | -158.41402 | 21974 ft | 357 kts | 119° |
| 2026-04-24 22:20 | 21.42980 | -158.39123 | 22381 ft | 359 kts | 119° |
| 2026-04-24 22:20 | 21.41672 | -158.36826 | 22783 ft | 361 kts | 119° |
| 2026-04-24 22:20 | 21.40370 | -158.34543 | 23156 ft | 363 kts | 120° |
| 2026-04-24 22:20 | 21.39047 | -158.32246 | 23502 ft | 366 kts | 120° |
| 2026-04-24 22:21 | 21.37696 | -158.29903 | 23853 ft | 368 kts | 120° |
| 2026-04-24 22:21 | 21.36341 | -158.27542 | 24208 ft | 370 kts | 120° |
| 2026-04-24 22:21 | 21.34992 | -158.25185 | 24526 ft | 373 kts | 120° |
| 2026-04-24 22:21 | 21.33642 | -158.22824 | 24834 ft | 375 kts | 120° |
| 2026-04-24 22:22 | 21.32284 | -158.20448 | 25138 ft | 377 kts | 120° |
| 2026-04-24 22:22 | 21.31049 | -158.17972 | 25386 ft | 378 kts | 108° |
| 2026-04-24 22:22 | 21.30438 | -158.15257 | 25646 ft | 376 kts | 92° |
| 2026-04-24 22:22 | 21.30364 | -158.12450 | 25949 ft | 376 kts | 86° |
| 2026-04-24 22:23 | 21.30453 | -158.09648 | 26214 ft | 378 kts | 85° |
| 2026-04-24 22:23 | 21.30553 | -158.06847 | 26479 ft | 380 kts | 86° |
| 2026-04-24 22:23 | 21.30632 | -158.03987 | 26759 ft | 382 kts | 86° |
| 2026-04-24 22:23 | 21.30694 | -158.01128 | 26924 ft | 387 kts | 87° |
| 2026-04-24 22:24 | 21.30747 | -157.98288 | 27036 ft | 393 kts | 87° |
| 2026-04-24 22:24 | 21.30762 | -157.95323 | 27137 ft | 399 kts | 92° |
| 2026-04-24 22:24 | 21.30250 | -157.92377 | 27233 ft | 408 kts | 107° |
| 2026-04-24 22:24 | 21.29102 | -157.89629 | 27337 ft | 416 kts | 118° |
| 2026-04-24 22:25 | 21.27602 | -157.86938 | 27473 ft | 421 kts | 121° |
| 2026-04-24 22:25 | 21.26085 | -157.84372 | 27771 ft | 422 kts | 121° |
| 2026-04-24 22:25 | 21.24522 | -157.81708 | 28064 ft | 423 kts | 120° |
| 2026-04-24 22:25 | 21.22980 | -157.79033 | 28319 ft | 425 kts | 120° |
| 2026-04-24 22:26 | 21.21443 | -157.76329 | 28538 ft | 427 kts | 120° |
| 2026-04-24 22:26 | 21.19918 | -157.73627 | 28782 ft | 429 kts | 120° |
| 2026-04-24 22:26 | 21.18361 | -157.70863 | 29094 ft | 432 kts | 120° |
| 2026-04-24 22:26 | 21.16854 | -157.68185 | 29463 ft | 435 kts | 120° |
| 2026-04-24 22:27 | 21.15287 | -157.65399 | 29847 ft | 437 kts | 120° |
| 2026-04-24 22:27 | 21.13731 | -157.62636 | 30195 ft | 440 kts | 120° |
| 2026-04-24 22:27 | 21.12151 | -157.59831 | 30572 ft | 442 kts | 120° |
| 2026-04-24 22:27 | 21.10580 | -157.57045 | 30906 ft | 445 kts | 120° |
| 2026-04-24 22:28 | 21.08961 | -157.54173 | 31046 ft | 452 kts | 120° |
| 2026-04-24 22:28 | 21.05689 | -157.48375 | 31066 ft | 465 kts | 121° |
| 2026-04-24 22:29 | 21.00645 | -157.39450 | 31074 ft | 483 kts | 121° |
| 2026-04-24 22:29 | 20.97153 | -157.33284 | 31077 ft | 495 kts | 121° |
| 2026-04-24 22:30 | 20.93559 | -157.27002 | 31078 ft | 505 kts | 121° |
| 2026-04-24 22:30 | 20.89925 | -157.20630 | 31076 ft | 515 kts | 121° |
| 2026-04-24 22:31 | 20.86213 | -157.14096 | 31077 ft | 523 kts | 121° |
| 2026-04-24 22:31 | 20.82470 | -157.07507 | 31083 ft | 531 kts | 121° |
| 2026-04-24 22:32 | 20.78652 | -157.00800 | 31094 ft | 537 kts | 121° |
| 2026-04-24 22:32 | 20.74674 | -156.94243 | 31102 ft | 540 kts | 126° |
| 2026-04-24 22:33 | 20.70174 | -156.87944 | 30973 ft | 526 kts | 128° |
| 2026-04-24 22:33 | 20.67949 | -156.84898 | 30461 ft | 517 kts | 128° |
| 2026-04-24 22:33 | 20.65808 | -156.81952 | 29953 ft | 509 kts | 127° |
| 2026-04-24 22:34 | 20.63670 | -156.78990 | 29438 ft | 502 kts | 127° |
| 2026-04-24 22:34 | 20.61587 | -156.76090 | 28935 ft | 495 kts | 127° |
| 2026-04-24 22:34 | 20.59525 | -156.73209 | 28425 ft | 488 kts | 127° |
| 2026-04-24 22:34 | 20.57489 | -156.70361 | 27910 ft | 482 kts | 126° |
| 2026-04-24 22:35 | 20.55472 | -156.67541 | 27403 ft | 477 kts | 126° |
| 2026-04-24 22:35 | 20.53490 | -156.64772 | 26895 ft | 471 kts | 126° |
| 2026-04-24 22:35 | 20.51557 | -156.62073 | 26393 ft | 466 kts | 126° |
| 2026-04-24 22:35 | 20.49593 | -156.59329 | 25875 ft | 462 kts | 126° |
| 2026-04-24 22:36 | 20.47675 | -156.56651 | 25372 ft | 457 kts | 126° |
| 2026-04-24 22:36 | 20.45752 | -156.53972 | 24860 ft | 453 kts | 126° |
| 2026-04-24 22:36 | 20.43839 | -156.51305 | 24347 ft | 449 kts | 126° |
| 2026-04-24 22:36 | 20.41976 | -156.48708 | 23841 ft | 445 kts | 126° |
| 2026-04-24 22:37 | 20.40094 | -156.46088 | 23327 ft | 441 kts | 126° |
| 2026-04-24 22:37 | 20.38193 | -156.43527 | 22811 ft | 437 kts | 131° |
| 2026-04-24 22:37 | 20.35964 | -156.41428 | 22297 ft | 435 kts | 144° |
| 2026-04-24 22:37 | 20.33325 | -156.39862 | 21776 ft | 432 kts | 155° |
| 2026-04-24 22:38 | 20.30545 | -156.38825 | 21268 ft | 429 kts | 163° |
| 2026-04-24 22:38 | 20.27625 | -156.38104 | 20748 ft | 426 kts | 168° |
| 2026-04-24 22:38 | 20.24683 | -156.37573 | 20228 ft | 423 kts | 171° |
| 2026-04-24 22:38 | 20.21862 | -156.37148 | 19695 ft | 410 kts | 172° |
| 2026-04-24 22:39 | 20.19056 | -156.36754 | 19178 ft | 395 kts | 172° |
| 2026-04-24 22:39 | 20.16383 | -156.36385 | 18670 ft | 383 kts | 172° |
| 2026-04-24 22:39 | 20.13749 | -156.36018 | 18154 ft | 371 kts | 172° |
| 2026-04-24 22:39 | 20.11213 | -156.35664 | 17646 ft | 361 kts | 172° |
| 2026-04-24 22:40 | 20.08765 | -156.35319 | 17128 ft | 354 kts | 172° |
| 2026-04-24 22:40 | 20.06322 | -156.34976 | 16452 ft | 352 kts | 173° |
| 2026-04-24 22:40 | 20.03890 | -156.34644 | 16035 ft | 350 kts | 173° |
| 2026-04-24 22:40 | 20.01503 | -156.34317 | 15608 ft | 348 kts | 173° |
| 2026-04-24 22:41 | 19.99088 | -156.33983 | 15171 ft | 347 kts | 173° |
| 2026-04-24 22:41 | 19.96700 | -156.33647 | 14755 ft | 345 kts | 173° |
| 2026-04-24 22:41 | 19.94307 | -156.33310 | 14230 ft | 343 kts | 173° |
| 2026-04-24 22:41 | 19.92729 | -156.33089 | 13728 ft | 343 kts | 173° |
| 2026-04-24 22:42 | 19.89587 | -156.32645 | 12843 ft | 338 kts | 172° |
| 2026-04-24 22:42 | 19.87281 | -156.32320 | 12239 ft | 333 kts | 172° |
| 2026-04-24 22:42 | 19.84975 | -156.31996 | 11617 ft | 328 kts | 172° |
| 2026-04-24 22:42 | 19.82724 | -156.31679 | 10985 ft | 325 kts | 172° |
| 2026-04-24 22:43 | 19.80498 | -156.31366 | 10630 ft | 320 kts | 172° |
| 2026-04-24 22:43 | 19.78272 | -156.31053 | 10211 ft | 319 kts | 172° |
| 2026-04-24 22:43 | 19.76070 | -156.30743 | 9734 ft | 317 kts | 172° |
| 2026-04-24 22:43 | 19.73906 | -156.30440 | 9124 ft | 312 kts | 172° |
| 2026-04-24 22:44 | 19.71752 | -156.30136 | 8591 ft | 305 kts | 172° |
| 2026-04-24 22:44 | 19.69657 | -156.29842 | 8086 ft | 299 kts | 172° |
| 2026-04-24 22:44 | 19.67614 | -156.29553 | 7584 ft | 294 kts | 172° |
| 2026-04-24 22:44 | 19.65618 | -156.29274 | 7232 ft | 283 kts | 172° |
| 2026-04-24 22:45 | 19.63685 | -156.29002 | 6877 ft | 273 kts | 172° |
| 2026-04-24 22:45 | 19.61844 | -156.28744 | 6530 ft | 262 kts | 172° |
| 2026-04-24 22:45 | 19.60034 | -156.28491 | 6028 ft | 258 kts | 172° |
| 2026-04-24 22:45 | 19.58270 | -156.28244 | 5529 ft | 255 kts | 172° |
| 2026-04-24 22:46 | 19.56517 | -156.27989 | 5022 ft | 251 kts | 168° |
| 2026-04-24 22:46 | 19.54962 | -156.27223 | 4531 ft | 243 kts | 134° |
| 2026-04-24 22:46 | 19.54122 | -156.25726 | 4031 ft | 235 kts | 103° |
| 2026-04-24 22:46 | 19.53803 | -156.24059 | 3535 ft | 233 kts | 96° |
| 2026-04-24 22:47 | 19.53603 | -156.22337 | 3026 ft | 232 kts | 94° |
| 2026-04-24 22:47 | 19.53448 | -156.20665 | 2700 ft | 222 kts | 94° |
| 2026-04-24 22:47 | 19.53313 | -156.19070 | 2659 ft | 211 kts | 94° |
| 2026-04-24 22:47 | 19.53188 | -156.17520 | 2655 ft | 211 kts | 93° |
| 2026-04-24 22:48 | 19.53064 | -156.15968 | 2653 ft | 210 kts | 93° |
| 2026-04-24 22:48 | 19.52941 | -156.14418 | 2649 ft | 209 kts | 94° |
| 2026-04-24 22:48 | 19.52822 | -156.12932 | 2637 ft | 193 kts | 94° |
| 2026-04-24 22:48 | 19.52714 | -156.11569 | 2655 ft | 183 kts | 93° |
| 2026-04-24 22:49 | 19.52607 | -156.10222 | 2519 ft | 189 kts | 93° |
| 2026-04-24 22:49 | 19.52499 | -156.08858 | 2372 ft | 180 kts | 93° |
| 2026-04-24 22:49 | 19.52530 | -156.07548 | 2238 ft | 179 kts | 68° |
| 2026-04-24 22:49 | 19.53355 | -156.06592 | 2116 ft | 177 kts | 22° |
| 2026-04-24 22:50 | 19.54514 | -156.06398 | 1993 ft | 164 kts | 8° |
| 2026-04-24 22:50 | 19.55638 | -156.06255 | 1870 ft | 155 kts | 8° |
| 2026-04-24 22:50 | 19.56669 | -156.06136 | 1881 ft | 148 kts | 7° |
| 2026-04-24 22:50 | 19.57707 | -156.06027 | 1912 ft | 148 kts | 7° |
| 2026-04-24 22:51 | 19.58743 | -156.05925 | 1934 ft | 149 kts | 7° |
| 2026-04-24 22:51 | 19.59789 | -156.05826 | 1880 ft | 153 kts | 6° |
| 2026-04-24 22:51 | 19.60837 | -156.05730 | 1709 ft | 147 kts | 7° |
| 2026-04-24 22:51 | 19.61865 | -156.05637 | 1542 ft | 148 kts | 6° |
| 2026-04-24 22:52 | 19.62905 | -156.05542 | 1391 ft | 150 kts | 6° |
| 2026-04-24 22:52 | 19.63965 | -156.05447 | 1252 ft | 149 kts | 6° |
| 2026-04-24 22:52 | 19.64987 | -156.05356 | 1112 ft | 146 kts | 5° |
| 2026-04-24 22:52 | 19.66004 | -156.05266 | 969 ft | 143 kts | 5° |
| 2026-04-24 22:53 | 19.66979 | -156.05179 | 829 ft | 140 kts | 4° |
| 2026-04-24 22:53 | 19.67960 | -156.05092 | 702 ft | 141 kts | 4° |
| 2026-04-24 22:53 | 19.68965 | -156.05019 | 772 ft | 145 kts | 4° |
| 2026-04-24 22:53 | 19.69977 | -156.04921 | 627 ft | 144 kts | 4° |
| 2026-04-24 22:54 | 19.70979 | -156.04828 | 410 ft | 142 kts | 3° |
| 2026-04-24 22:54 | 19.71969 | -156.04735 | 163 ft | 141 kts | 2° |
| 2026-04-24 22:54 | 19.72933 | -156.04652 | 59 ft | 132 kts | 4° |
| 2026-04-24 22:54 | 19.73613 | -156.04588 | 59 ft | 29 kts | 4° |
| 2026-04-24 22:55 | 19.73793 | -156.04572 | 61 ft | 26 kts | 4° |
| 2026-04-24 22:55 | 19.73977 | -156.04558 | 63 ft | 25 kts | 4° |
| 2026-04-24 22:55 | 19.74138 | -156.04504 | 64 ft | 22 kts | 73° |
| 2026-04-24 22:55 | 19.74127 | -156.04356 | 67 ft | 19 kts | 90° |
| 2026-04-24 22:56 | 19.74100 | -156.04230 | 69 ft | 15 kts | 150° |
| 2026-04-24 22:56 | 19.73992 | -156.04231 | 69 ft | 15 kts | 194° |
| 2026-04-24 22:56 | 19.73882 | -156.04246 | 68 ft | 17 kts | 185° |
| 2026-04-24 22:56 | 19.73739 | -156.04275 | 66 ft | 25 kts | 195° |
| 2026-04-24 22:57 | 19.73568 | -156.04309 | 66 ft | 15 kts | 153° |
| 2026-04-24 22:57 | 19.73541 | -156.04277 | 68 ft | 1 kts | 90° |
| 2026-04-24 22:57 | 19.73542 | -156.04271 | 68 ft | 2 kts | 88° |
| 2026-04-24 22:57 | 19.73542 | -156.04251 | 69 ft | 0 kts | 93° |
| 2026-04-24 22:58 | 19.73542 | -156.04250 | 69 ft | 0 kts | 93° |